sensor_id;sensor_type;location;lat;lon;timestamp;temperature;humidity
20528;DHT22;23612;50.894;10.700;2022-12-10T00:01:19;1.10;99.90
20528;DHT22;23612;50.894;10.700;2022-12-10T00:03:45;1.10;99.90
20528;DHT22;23612;50.894;10.700;2022-12-10T00:06:13;1.00;99.90
20528;DHT22;23612;50.894;10.700;2022-12-10T00:08:39;1.00;99.90
20528;DHT22;23612;50.894;10.700;2022-12-10T00:11:09;1.10;99.90
20528;DHT22;23612;50.894;10.700;2022-12-10T00:13:36;1.00;99.90
20528;DHT22;23612;50.894;10.700;2022-12-10T00:16:03;1.00;99.90
20528;DHT22;23612;50.894;10.700;2022-12-10T00:18:29;0.90;99.90
20528;DHT22;23612;50.894;10.700;2022-12-10T00:20:54;0.90;99.90
20528;DHT22;23612;50.894;10.700;2022-12-10T00:23:20;0.90;99.90
20528;DHT22;23612;50.894;10.700;2022-12-10T00:25:45;0.90;99.90
20528;DHT22;23612;50.894;10.700;2022-12-10T00:28:11;0.90;99.90
20528;DHT22;23612;50.894;10.700;2022-12-10T00:30:36;0.90;99.90
20528;DHT22;23612;50.894;10.700;2022-12-10T00:33:02;0.90;99.90
20528;DHT22;23612;50.894;10.700;2022-12-10T00:35:28;0.80;99.90
20528;DHT22;23612;50.894;10.700;2022-12-10T00:37:53;0.80;99.90
20528;DHT22;23612;50.894;10.700;2022-12-10T00:40:19;0.80;99.90
20528;DHT22;23612;50.894;10.700;2022-12-10T00:42:44;0.80;99.90
20528;DHT22;23612;50.894;10.700;2022-12-10T00:45:10;0.90;99.90
20528;DHT22;23612;50.894;10.700;2022-12-10T00:47:35;0.90;99.90
20528;DHT22;23612;50.894;10.700;2022-12-10T00:50:01;0.80;99.90
20528;DHT22;23612;50.894;10.700;2022-12-10T00:52:26;0.70;99.90
20528;DHT22;23612;50.894;10.700;2022-12-10T00:54:52;0.70;99.90
20528;DHT22;23612;50.894;10.700;2022-12-10T00:57:17;0.70;99.90
20528;DHT22;23612;50.894;10.700;2022-12-10T00:59:43;0.70;99.90
20528;DHT22;23612;50.894;10.700;2022-12-10T01:02:08;0.70;99.90
20528;DHT22;23612;50.894;10.700;2022-12-10T01:04:34;0.70;99.90
20528;DHT22;23612;50.894;10.700;2022-12-10T01:07:00;0.70;99.90
20528;DHT22;23612;50.894;10.700;2022-12-10T01:09:27;0.80;99.90
20528;DHT22;23612;50.894;10.700;2022-12-10T01:11:55;0.70;99.90
20528;DHT22;23612;50.894;10.700;2022-12-10T01:14:26;0.70;99.90
20528;DHT22;23612;50.894;10.700;2022-12-10T01:17:01;0.70;99.90
20528;DHT22;23612;50.894;10.700;2022-12-10T01:19:29;0.70;99.90
20528;DHT22;23612;50.894;10.700;2022-12-10T01:21:55;0.60;99.90
20528;DHT22;23612;50.894;10.700;2022-12-10T01:24:22;0.60;99.90
20528;DHT22;23612;50.894;10.700;2022-12-10T01:26:48;0.60;99.90
20528;DHT22;23612;50.894;10.700;2022-12-10T01:29:14;0.60;99.90
20528;DHT22;23612;50.894;10.700;2022-12-10T01:31:40;0.60;99.90
20528;DHT22;23612;50.894;10.700;2022-12-10T01:34:08;0.60;99.90
20528;DHT22;23612;50.894;10.700;2022-12-10T01:36:37;0.60;99.90
20528;DHT22;23612;50.894;10.700;2022-12-10T01:39:05;0.50;99.90
20528;DHT22;23612;50.894;10.700;2022-12-10T01:41:36;0.60;99.90
20528;DHT22;23612;50.894;10.700;2022-12-10T01:46:36;0.50;99.90
20528;DHT22;23612;50.894;10.700;2022-12-10T01:49:06;0.50;99.90
20528;DHT22;23612;50.894;10.700;2022-12-10T01:51:34;0.50;99.90
20528;DHT22;23612;50.894;10.700;2022-12-10T01:54:01;0.40;99.90
20528;DHT22;23612;50.894;10.700;2022-12-10T01:56:27;0.50;99.90
20528;DHT22;23612;50.894;10.700;2022-12-10T01:58:55;0.50;99.90
20528;DHT22;23612;50.894;10.700;2022-12-10T02:01:31;0.50;99.90
20528;DHT22;23612;50.894;10.700;2022-12-10T02:06:45;0.50;99.90
20528;DHT22;23612;50.894;10.700;2022-12-10T02:09:25;0.40;99.90
20528;DHT22;23612;50.894;10.700;2022-12-10T02:11:56;0.40;99.90
20528;DHT22;23612;50.894;10.700;2022-12-10T02:14:32;0.40;99.90
20528;DHT22;23612;50.894;10.700;2022-12-10T02:17:05;0.40;99.90
20528;DHT22;23612;50.894;10.700;2022-12-10T02:21:58;0.40;99.90
20528;DHT22;23612;50.894;10.700;2022-12-10T02:24:30;0.30;99.90
20528;DHT22;23612;50.894;10.700;2022-12-10T02:27:11;0.40;99.90
20528;DHT22;23612;50.894;10.700;2022-12-10T02:29:41;0.30;99.90
20528;DHT22;23612;50.894;10.700;2022-12-10T02:32:14;0.40;99.90
20528;DHT22;23612;50.894;10.700;2022-12-10T02:34:45;0.40;99.90
20528;DHT22;23612;50.894;10.700;2022-12-10T02:37:22;0.50;99.90
20528;DHT22;23612;50.894;10.700;2022-12-10T02:39:51;0.50;99.90
20528;DHT22;23612;50.894;10.700;2022-12-10T02:42:19;0.30;99.90
20528;DHT22;23612;50.894;10.700;2022-12-10T02:44:48;0.40;99.90
20528;DHT22;23612;50.894;10.700;2022-12-10T02:47:15;0.40;99.90
20528;DHT22;23612;50.894;10.700;2022-12-10T02:49:41;0.40;99.90
20528;DHT22;23612;50.894;10.700;2022-12-10T02:52:12;0.40;99.90
20528;DHT22;23612;50.894;10.700;2022-12-10T02:54:48;0.40;99.90
20528;DHT22;23612;50.894;10.700;2022-12-10T02:59:57;0.30;99.90
20528;DHT22;23612;50.894;10.700;2022-12-10T03:02:38;0.20;99.90
20528;DHT22;23612;50.894;10.700;2022-12-10T03:05:22;0.30;99.90
20528;DHT22;23612;50.894;10.700;2022-12-10T03:07:55;0.30;99.90
20528;DHT22;23612;50.894;10.700;2022-12-10T03:10:27;0.20;99.90
20528;DHT22;23612;50.894;10.700;2022-12-10T03:12:59;0.20;99.90
20528;DHT22;23612;50.894;10.700;2022-12-10T03:15:27;0.20;99.90
20528;DHT22;23612;50.894;10.700;2022-12-10T03:17:54;0.10;99.90
20528;DHT22;23612;50.894;10.700;2022-12-10T03:20:22;0.10;99.90
20528;DHT22;23612;50.894;10.700;2022-12-10T03:22:49;0.10;99.90
20528;DHT22;23612;50.894;10.700;2022-12-10T03:25:19;0.20;99.90
20528;DHT22;23612;50.894;10.700;2022-12-10T03:27:48;0.10;99.90
20528;DHT22;23612;50.894;10.700;2022-12-10T03:30:15;0.10;99.90
20528;DHT22;23612;50.894;10.700;2022-12-10T03:32:41;0.00;99.90
20528;DHT22;23612;50.894;10.700;2022-12-10T03:35:09;0.00;99.90
20528;DHT22;23612;50.894;10.700;2022-12-10T03:37:36;0.00;99.90
20528;DHT22;23612;50.894;10.700;2022-12-10T03:40:03;0.10;99.90
20528;DHT22;23612;50.894;10.700;2022-12-10T03:42:29;0.10;99.90
20528;DHT22;23612;50.894;10.700;2022-12-10T03:44:55;0.10;99.90
20528;DHT22;23612;50.894;10.700;2022-12-10T03:47:21;0.20;99.90
20528;DHT22;23612;50.894;10.700;2022-12-10T03:49:47;0.10;99.90
20528;DHT22;23612;50.894;10.700;2022-12-10T03:52:13;0.10;99.90
20528;DHT22;23612;50.894;10.700;2022-12-10T03:54:39;0.00;99.90
20528;DHT22;23612;50.894;10.700;2022-12-10T03:57:05;0.10;99.90
20528;DHT22;23612;50.894;10.700;2022-12-10T03:59:30;0.10;99.90
20528;DHT22;23612;50.894;10.700;2022-12-10T04:01:56;0.20;99.90
20528;DHT22;23612;50.894;10.700;2022-12-10T04:04:22;0.20;99.90
20528;DHT22;23612;50.894;10.700;2022-12-10T04:06:47;0.20;99.90
20528;DHT22;23612;50.894;10.700;2022-12-10T04:09:15;0.20;99.90
20528;DHT22;23612;50.894;10.700;2022-12-10T04:11:41;0.10;99.90
20528;DHT22;23612;50.894;10.700;2022-12-10T04:14:08;0.10;99.90
20528;DHT22;23612;50.894;10.700;2022-12-10T04:16:52;0.20;99.90
20528;DHT22;23612;50.894;10.700;2022-12-10T04:19:18;0.10;99.90
20528;DHT22;23612;50.894;10.700;2022-12-10T04:21:45;0.10;99.90
20528;DHT22;23612;50.894;10.700;2022-12-10T04:24:33;0.00;99.90
20528;DHT22;23612;50.894;10.700;2022-12-10T04:27:26;-0.10;99.90
20528;DHT22;23612;50.894;10.700;2022-12-10T04:29:53;-0.10;99.90
20528;DHT22;23612;50.894;10.700;2022-12-10T04:32:19;-0.10;99.90
20528;DHT22;23612;50.894;10.700;2022-12-10T04:34:45;0.00;99.90
20528;DHT22;23612;50.894;10.700;2022-12-10T04:37:11;-0.10;99.90
20528;DHT22;23612;50.894;10.700;2022-12-10T04:39:38;-0.10;99.90
20528;DHT22;23612;50.894;10.700;2022-12-10T04:42:04;-0.10;99.90
20528;DHT22;23612;50.894;10.700;2022-12-10T04:44:30;-0.10;99.90
20528;DHT22;23612;50.894;10.700;2022-12-10T04:46:56;-0.10;99.90
20528;DHT22;23612;50.894;10.700;2022-12-10T04:49:22;-0.10;99.90
20528;DHT22;23612;50.894;10.700;2022-12-10T04:51:48;-0.10;99.90
20528;DHT22;23612;50.894;10.700;2022-12-10T04:54:14;-0.10;99.90
20528;DHT22;23612;50.894;10.700;2022-12-10T04:56:40;-0.10;99.90
20528;DHT22;23612;50.894;10.700;2022-12-10T04:59:06;0.00;99.90
20528;DHT22;23612;50.894;10.700;2022-12-10T05:01:32;0.00;99.90
20528;DHT22;23612;50.894;10.700;2022-12-10T05:04:00;-0.10;99.90
20528;DHT22;23612;50.894;10.700;2022-12-10T05:06:25;-0.10;99.90
20528;DHT22;23612;50.894;10.700;2022-12-10T05:08:51;-0.10;99.90
20528;DHT22;23612;50.894;10.700;2022-12-10T05:11:19;-0.10;99.90
20528;DHT22;23612;50.894;10.700;2022-12-10T05:13:45;-0.10;99.90
20528;DHT22;23612;50.894;10.700;2022-12-10T05:16:14;-0.10;99.90
20528;DHT22;23612;50.894;10.700;2022-12-10T05:18:40;0.00;99.90
20528;DHT22;23612;50.894;10.700;2022-12-10T05:21:09;0.00;99.90
20528;DHT22;23612;50.894;10.700;2022-12-10T05:23:39;0.00;99.90
20528;DHT22;23612;50.894;10.700;2022-12-10T05:26:09;-0.10;99.90
20528;DHT22;23612;50.894;10.700;2022-12-10T05:28:40;0.00;99.90
20528;DHT22;23612;50.894;10.700;2022-12-10T05:31:15;0.00;99.90
20528;DHT22;23612;50.894;10.700;2022-12-10T05:33:41;-0.10;99.90
20528;DHT22;23612;50.894;10.700;2022-12-10T05:36:07;0.00;99.90
20528;DHT22;23612;50.894;10.700;2022-12-10T05:38:34;-0.10;99.90
20528;DHT22;23612;50.894;10.700;2022-12-10T05:41:09;-0.10;99.90
20528;DHT22;23612;50.894;10.700;2022-12-10T05:43:34;-0.10;99.90
20528;DHT22;23612;50.894;10.700;2022-12-10T05:46:06;0.00;99.90
20528;DHT22;23612;50.894;10.700;2022-12-10T05:48:33;0.00;99.90
20528;DHT22;23612;50.894;10.700;2022-12-10T05:51:03;0.00;99.90
20528;DHT22;23612;50.894;10.700;2022-12-10T05:53:29;0.00;99.90
20528;DHT22;23612;50.894;10.700;2022-12-10T05:56:02;0.10;99.90
20528;DHT22;23612;50.894;10.700;2022-12-10T05:58:28;0.10;99.90
20528;DHT22;23612;50.894;10.700;2022-12-10T06:00:55;0.20;99.90
20528;DHT22;23612;50.894;10.700;2022-12-10T06:03:21;0.20;99.90
20528;DHT22;23612;50.894;10.700;2022-12-10T06:05:47;0.20;99.90
20528;DHT22;23612;50.894;10.700;2022-12-10T06:08:12;0.20;99.90
20528;DHT22;23612;50.894;10.700;2022-12-10T06:10:38;0.20;99.90
20528;DHT22;23612;50.894;10.700;2022-12-10T06:13:04;0.20;99.90
20528;DHT22;23612;50.894;10.700;2022-12-10T06:15:30;0.20;99.90
20528;DHT22;23612;50.894;10.700;2022-12-10T06:17:56;0.20;99.90
20528;DHT22;23612;50.894;10.700;2022-12-10T06:20:23;0.20;99.90
20528;DHT22;23612;50.894;10.700;2022-12-10T06:22:49;0.20;99.90
20528;DHT22;23612;50.894;10.700;2022-12-10T06:25:14;0.30;99.90
20528;DHT22;23612;50.894;10.700;2022-12-10T06:27:40;0.30;99.90
20528;DHT22;23612;50.894;10.700;2022-12-10T06:30:06;0.30;99.90
20528;DHT22;23612;50.894;10.700;2022-12-10T06:32:31;0.40;99.90
20528;DHT22;23612;50.894;10.700;2022-12-10T06:34:57;0.30;99.90
20528;DHT22;23612;50.894;10.700;2022-12-10T06:37:23;0.30;99.90
20528;DHT22;23612;50.894;10.700;2022-12-10T06:39:50;0.40;99.90
20528;DHT22;23612;50.894;10.700;2022-12-10T06:42:17;0.40;99.90
20528;DHT22;23612;50.894;10.700;2022-12-10T06:44:42;0.30;99.90
20528;DHT22;23612;50.894;10.700;2022-12-10T06:47:08;0.30;99.90
20528;DHT22;23612;50.894;10.700;2022-12-10T06:49:33;0.30;99.90
20528;DHT22;23612;50.894;10.700;2022-12-10T06:51:59;0.20;99.90
20528;DHT22;23612;50.894;10.700;2022-12-10T06:54:25;0.20;99.90
20528;DHT22;23612;50.894;10.700;2022-12-10T06:56:50;0.20;99.90
20528;DHT22;23612;50.894;10.700;2022-12-10T06:59:16;0.20;99.90
20528;DHT22;23612;50.894;10.700;2022-12-10T07:01:42;0.10;99.90
20528;DHT22;23612;50.894;10.700;2022-12-10T07:04:08;0.10;99.90
20528;DHT22;23612;50.894;10.700;2022-12-10T07:06:34;0.00;99.90
20528;DHT22;23612;50.894;10.700;2022-12-10T07:08:59;0.00;99.90
20528;DHT22;23612;50.894;10.700;2022-12-10T07:11:25;0.00;99.90
20528;DHT22;23612;50.894;10.700;2022-12-10T07:13:51;0.00;99.90
20528;DHT22;23612;50.894;10.700;2022-12-10T07:16:22;0.10;99.90
20528;DHT22;23612;50.894;10.700;2022-12-10T07:18:49;0.00;99.90
20528;DHT22;23612;50.894;10.700;2022-12-10T07:21:23;0.10;99.90
20528;DHT22;23612;50.894;10.700;2022-12-10T07:23:51;0.10;99.90
20528;DHT22;23612;50.894;10.700;2022-12-10T07:26:16;0.10;99.90
20528;DHT22;23612;50.894;10.700;2022-12-10T07:28:42;0.10;99.90
20528;DHT22;23612;50.894;10.700;2022-12-10T07:31:09;0.00;99.90
20528;DHT22;23612;50.894;10.700;2022-12-10T07:33:35;0.10;99.90
20528;DHT22;23612;50.894;10.700;2022-12-10T07:36:06;0.10;99.90
20528;DHT22;23612;50.894;10.700;2022-12-10T07:38:32;0.20;99.90
20528;DHT22;23612;50.894;10.700;2022-12-10T07:40:57;0.20;99.90
20528;DHT22;23612;50.894;10.700;2022-12-10T07:43:23;0.20;99.90
20528;DHT22;23612;50.894;10.700;2022-12-10T07:45:48;0.30;99.90
20528;DHT22;23612;50.894;10.700;2022-12-10T07:48:14;0.30;99.90
20528;DHT22;23612;50.894;10.700;2022-12-10T07:50:40;0.40;99.90
20528;DHT22;23612;50.894;10.700;2022-12-10T07:53:05;0.40;99.90
20528;DHT22;23612;50.894;10.700;2022-12-10T07:55:31;0.40;99.90
20528;DHT22;23612;50.894;10.700;2022-12-10T07:57:57;0.50;99.90
20528;DHT22;23612;50.894;10.700;2022-12-10T08:00:22;0.40;99.90
20528;DHT22;23612;50.894;10.700;2022-12-10T08:02:48;0.40;99.90
20528;DHT22;23612;50.894;10.700;2022-12-10T08:05:13;0.50;99.90
20528;DHT22;23612;50.894;10.700;2022-12-10T08:07:39;0.40;99.90
20528;DHT22;23612;50.894;10.700;2022-12-10T08:10:05;0.40;99.90
20528;DHT22;23612;50.894;10.700;2022-12-10T08:12:30;0.40;99.90
20528;DHT22;23612;50.894;10.700;2022-12-10T08:14:56;0.40;99.90
20528;DHT22;23612;50.894;10.700;2022-12-10T08:17:21;0.40;99.90
20528;DHT22;23612;50.894;10.700;2022-12-10T08:19:47;0.30;99.90
20528;DHT22;23612;50.894;10.700;2022-12-10T08:22:12;0.30;99.90
20528;DHT22;23612;50.894;10.700;2022-12-10T08:24:38;0.20;99.90
20528;DHT22;23612;50.894;10.700;2022-12-10T08:27:03;0.20;99.90
20528;DHT22;23612;50.894;10.700;2022-12-10T08:29:29;0.20;99.90
20528;DHT22;23612;50.894;10.700;2022-12-10T08:31:54;0.30;99.90
20528;DHT22;23612;50.894;10.700;2022-12-10T08:34:20;0.20;99.90
20528;DHT22;23612;50.894;10.700;2022-12-10T08:36:46;0.20;99.90
20528;DHT22;23612;50.894;10.700;2022-12-10T08:39:12;0.10;99.90
20528;DHT22;23612;50.894;10.700;2022-12-10T08:41:43;0.10;99.90
20528;DHT22;23612;50.894;10.700;2022-12-10T08:44:08;0.10;99.90
20528;DHT22;23612;50.894;10.700;2022-12-10T08:46:34;0.20;99.90
20528;DHT22;23612;50.894;10.700;2022-12-10T08:49:00;0.20;99.90
20528;DHT22;23612;50.894;10.700;2022-12-10T08:51:26;0.20;99.90
20528;DHT22;23612;50.894;10.700;2022-12-10T08:53:53;0.20;99.90
20528;DHT22;23612;50.894;10.700;2022-12-10T08:56:18;0.30;99.90
20528;DHT22;23612;50.894;10.700;2022-12-10T08:58:44;0.40;99.90
20528;DHT22;23612;50.894;10.700;2022-12-10T09:01:11;0.30;99.90
20528;DHT22;23612;50.894;10.700;2022-12-10T09:03:37;0.40;99.90
20528;DHT22;23612;50.894;10.700;2022-12-10T09:06:05;0.30;99.90
20528;DHT22;23612;50.894;10.700;2022-12-10T09:08:31;0.40;99.90
20528;DHT22;23612;50.894;10.700;2022-12-10T09:10:57;0.40;99.90
20528;DHT22;23612;50.894;10.700;2022-12-10T09:13:22;0.50;99.90
20528;DHT22;23612;50.894;10.700;2022-12-10T09:15:51;0.50;99.90
20528;DHT22;23612;50.894;10.700;2022-12-10T09:18:17;0.60;99.90
20528;DHT22;23612;50.894;10.700;2022-12-10T09:20:43;0.60;99.90
20528;DHT22;23612;50.894;10.700;2022-12-10T09:23:09;0.60;99.90
20528;DHT22;23612;50.894;10.700;2022-12-10T09:25:34;0.60;99.90
20528;DHT22;23612;50.894;10.700;2022-12-10T09:28:00;0.50;99.90
20528;DHT22;23612;50.894;10.700;2022-12-10T09:30:25;0.40;99.90
20528;DHT22;23612;50.894;10.700;2022-12-10T09:32:51;0.40;99.90
20528;DHT22;23612;50.894;10.700;2022-12-10T09:35:16;0.40;99.90
20528;DHT22;23612;50.894;10.700;2022-12-10T09:37:42;0.40;99.90
20528;DHT22;23612;50.894;10.700;2022-12-10T09:40:16;0.40;99.90
20528;DHT22;23612;50.894;10.700;2022-12-10T09:42:58;0.40;99.90
20528;DHT22;23612;50.894;10.700;2022-12-10T09:51:23;0.30;99.90
20528;DHT22;23612;50.894;10.700;2022-12-10T09:53:51;0.20;99.90
20528;DHT22;23612;50.894;10.700;2022-12-10T09:56:42;0.30;99.90
20528;DHT22;23612;50.894;10.700;2022-12-10T10:02:16;0.30;99.90
20528;DHT22;23612;50.894;10.700;2022-12-10T10:04:44;0.40;99.90
20528;DHT22;23612;50.894;10.700;2022-12-10T10:07:19;0.40;99.90
20528;DHT22;23612;50.894;10.700;2022-12-10T10:09:46;0.40;99.90
20528;DHT22;23612;50.894;10.700;2022-12-10T10:12:15;0.50;99.90
20528;DHT22;23612;50.894;10.700;2022-12-10T10:14:44;0.50;99.90
20528;DHT22;23612;50.894;10.700;2022-12-10T10:17:27;0.60;99.90
20528;DHT22;23612;50.894;10.700;2022-12-10T10:19:56;0.60;99.90
20528;DHT22;23612;50.894;10.700;2022-12-10T10:22:21;0.60;99.90
20528;DHT22;23612;50.894;10.700;2022-12-10T10:24:47;0.60;99.90
20528;DHT22;23612;50.894;10.700;2022-12-10T10:27:21;0.70;99.90
20528;DHT22;23612;50.894;10.700;2022-12-10T10:29:50;0.80;99.90
20528;DHT22;23612;50.894;10.700;2022-12-10T10:34:47;0.70;99.90
20528;DHT22;23612;50.894;10.700;2022-12-10T10:37:23;0.70;99.90
20528;DHT22;23612;50.894;10.700;2022-12-10T10:39:51;0.70;99.90
20528;DHT22;23612;50.894;10.700;2022-12-10T10:44:51;0.80;99.90
20528;DHT22;23612;50.894;10.700;2022-12-10T10:47:30;0.90;99.90
20528;DHT22;23612;50.894;10.700;2022-12-10T10:49:56;1.00;99.90
20528;DHT22;23612;50.894;10.700;2022-12-10T10:52:21;1.00;99.90
20528;DHT22;23612;50.894;10.700;2022-12-10T10:54:48;1.10;99.90
20528;DHT22;23612;50.894;10.700;2022-12-10T10:57:29;1.30;99.90
20528;DHT22;23612;50.894;10.700;2022-12-10T11:02:37;1.50;99.90
20528;DHT22;23612;50.894;10.700;2022-12-10T11:07:40;1.90;99.90
20528;DHT22;23612;50.894;10.700;2022-12-10T11:10:20;2.10;99.90
20528;DHT22;23612;50.894;10.700;2022-12-10T11:12:57;2.10;99.90
20528;DHT22;23612;50.894;10.700;2022-12-10T11:15:37;2.20;99.90
20528;DHT22;23612;50.894;10.700;2022-12-10T11:18:41;2.10;99.90
20528;DHT22;23612;50.894;10.700;2022-12-10T11:23:47;1.90;99.90
20528;DHT22;23612;50.894;10.700;2022-12-10T11:32:00;1.90;99.90
20528;DHT22;23612;50.894;10.700;2022-12-10T11:37:29;1.70;99.90
20528;DHT22;23612;50.894;10.700;2022-12-10T11:40:33;1.40;99.90
20528;DHT22;23612;50.894;10.700;2022-12-10T11:46:48;1.40;99.90
20528;DHT22;23612;50.894;10.700;2022-12-10T11:49:27;1.20;99.90
20528;DHT22;23612;50.894;10.700;2022-12-10T11:52:37;1.30;99.90
20528;DHT22;23612;50.894;10.700;2022-12-10T12:04:33;1.30;99.90
20528;DHT22;23612;50.894;10.700;2022-12-10T12:10:32;1.10;99.90
20528;DHT22;23612;50.894;10.700;2022-12-10T12:13:24;1.00;99.90
20528;DHT22;23612;50.894;10.700;2022-12-10T12:16:07;0.90;99.90
20528;DHT22;23612;50.894;10.700;2022-12-10T12:18:51;0.90;99.90
20528;DHT22;23612;50.894;10.700;2022-12-10T12:21:20;0.90;99.90
20528;DHT22;23612;50.894;10.700;2022-12-10T12:26:21;0.80;99.90
20528;DHT22;23612;50.894;10.700;2022-12-10T12:31:40;0.80;99.90
20528;DHT22;23612;50.894;10.700;2022-12-10T12:34:21;0.70;99.90
20528;DHT22;23612;50.894;10.700;2022-12-10T12:36:49;0.60;99.90
20528;DHT22;23612;50.894;10.700;2022-12-10T12:41:53;0.60;99.90
20528;DHT22;23612;50.894;10.700;2022-12-10T12:44:38;0.60;99.90
20528;DHT22;23612;50.894;10.700;2022-12-10T12:47:39;0.50;99.90
20528;DHT22;23612;50.894;10.700;2022-12-10T12:50:42;0.50;99.90
20528;DHT22;23612;50.894;10.700;2022-12-10T12:53:13;0.40;99.90
20528;DHT22;23612;50.894;10.700;2022-12-10T12:55:59;0.30;99.90
20528;DHT22;23612;50.894;10.700;2022-12-10T12:58:40;0.30;99.90
20528;DHT22;23612;50.894;10.700;2022-12-10T13:03:46;0.10;99.90
20528;DHT22;23612;50.894;10.700;2022-12-10T13:06:23;0.20;99.90
20528;DHT22;23612;50.894;10.700;2022-12-10T13:19:41;0.10;99.90
20528;DHT22;23612;50.894;10.700;2022-12-10T13:22:40;0.20;99.90
20528;DHT22;23612;50.894;10.700;2022-12-10T13:25:16;0.20;99.90
20528;DHT22;23612;50.894;10.700;2022-12-10T13:27:54;0.30;99.90
20528;DHT22;23612;50.894;10.700;2022-12-10T13:30:34;0.30;99.90
20528;DHT22;23612;50.894;10.700;2022-12-10T13:33:17;0.40;99.90
20528;DHT22;23612;50.894;10.700;2022-12-10T13:35:59;0.30;99.90
20528;DHT22;23612;50.894;10.700;2022-12-10T13:38:27;0.30;99.90
20528;DHT22;23612;50.894;10.700;2022-12-10T13:41:05;0.30;99.90
20528;DHT22;23612;50.894;10.700;2022-12-10T13:43:54;0.20;99.90
20528;DHT22;23612;50.894;10.700;2022-12-10T13:47:04;0.30;99.90
20528;DHT22;23612;50.894;10.700;2022-12-10T13:49:30;0.20;99.90
20528;DHT22;23612;50.894;10.700;2022-12-10T13:52:03;0.20;99.90
20528;DHT22;23612;50.894;10.700;2022-12-10T14:00:17;0.00;99.90
20528;DHT22;23612;50.894;10.700;2022-12-10T14:03:21;0.00;99.90
20528;DHT22;23612;50.894;10.700;2022-12-10T14:08:33;0.20;99.90
20528;DHT22;23612;50.894;10.700;2022-12-10T14:11:02;0.20;99.90
20528;DHT22;23612;50.894;10.700;2022-12-10T14:13:42;0.20;99.90
20528;DHT22;23612;50.894;10.700;2022-12-10T14:16:13;0.20;99.90
20528;DHT22;23612;50.894;10.700;2022-12-10T14:18:42;0.20;99.90
20528;DHT22;23612;50.894;10.700;2022-12-10T14:21:08;0.10;99.90
20528;DHT22;23612;50.894;10.700;2022-12-10T14:23:34;0.10;99.90
20528;DHT22;23612;50.894;10.700;2022-12-10T14:26:05;0.10;99.90
20528;DHT22;23612;50.894;10.700;2022-12-10T14:28:39;0.10;99.90
20528;DHT22;23612;50.894;10.700;2022-12-10T14:31:06;0.00;99.90
20528;DHT22;23612;50.894;10.700;2022-12-10T14:33:35;0.00;99.90
20528;DHT22;23612;50.894;10.700;2022-12-10T14:36:02;-0.10;99.90
20528;DHT22;23612;50.894;10.700;2022-12-10T14:38:33;-0.10;99.90
20528;DHT22;23612;50.894;10.700;2022-12-10T14:41:00;-0.10;99.90
20528;DHT22;23612;50.894;10.700;2022-12-10T14:43:36;-0.10;99.90
20528;DHT22;23612;50.894;10.700;2022-12-10T14:46:05;-0.10;99.90
20528;DHT22;23612;50.894;10.700;2022-12-10T14:48:39;-0.10;99.90
20528;DHT22;23612;50.894;10.700;2022-12-10T14:51:16;-0.10;99.90
20528;DHT22;23612;50.894;10.700;2022-12-10T14:53:44;-0.20;99.90
20528;DHT22;23612;50.894;10.700;2022-12-10T14:56:19;-0.20;99.90
20528;DHT22;23612;50.894;10.700;2022-12-10T14:58:56;-0.20;99.90
20528;DHT22;23612;50.894;10.700;2022-12-10T15:03:53;-0.20;99.90
20528;DHT22;23612;50.894;10.700;2022-12-10T15:06:19;-0.20;99.90
20528;DHT22;23612;50.894;10.700;2022-12-10T15:08:46;-0.20;99.90
20528;DHT22;23612;50.894;10.700;2022-12-10T15:11:17;-0.20;99.90
20528;DHT22;23612;50.894;10.700;2022-12-10T15:13:47;-0.20;99.90
20528;DHT22;23612;50.894;10.700;2022-12-10T15:16:20;-0.10;99.90
20528;DHT22;23612;50.894;10.700;2022-12-10T15:18:46;-0.10;99.90
20528;DHT22;23612;50.894;10.700;2022-12-10T15:21:20;-0.10;99.90
20528;DHT22;23612;50.894;10.700;2022-12-10T15:23:47;-0.10;99.90
20528;DHT22;23612;50.894;10.700;2022-12-10T15:26:24;-0.10;99.90
20528;DHT22;23612;50.894;10.700;2022-12-10T15:31:48;-0.10;99.90
20528;DHT22;23612;50.894;10.700;2022-12-10T15:34:14;-0.10;99.90
20528;DHT22;23612;50.894;10.700;2022-12-10T15:36:43;-0.10;99.90
20528;DHT22;23612;50.894;10.700;2022-12-10T15:39:28;-0.10;99.90
20528;DHT22;23612;50.894;10.700;2022-12-10T15:42:28;-0.20;99.90
20528;DHT22;23612;50.894;10.700;2022-12-10T15:45:04;-0.20;99.90
20528;DHT22;23612;50.894;10.700;2022-12-10T15:47:34;-0.30;99.90
20528;DHT22;23612;50.894;10.700;2022-12-10T15:50:03;-0.30;99.90
20528;DHT22;23612;50.894;10.700;2022-12-10T15:52:30;-0.30;99.90
20528;DHT22;23612;50.894;10.700;2022-12-10T15:54:57;-0.30;99.90
20528;DHT22;23612;50.894;10.700;2022-12-10T15:57:31;-0.30;99.90
20528;DHT22;23612;50.894;10.700;2022-12-10T16:00:08;-0.30;99.90
20528;DHT22;23612;50.894;10.700;2022-12-10T16:05:24;-0.40;99.90
20528;DHT22;23612;50.894;10.700;2022-12-10T16:07:52;-0.40;99.90
20528;DHT22;23612;50.894;10.700;2022-12-10T16:10:20;-0.40;99.90
20528;DHT22;23612;50.894;10.700;2022-12-10T16:12:49;-0.40;99.90
20528;DHT22;23612;50.894;10.700;2022-12-10T16:15:18;-0.40;99.90
20528;DHT22;23612;50.894;10.700;2022-12-10T16:17:44;-0.40;99.90
20528;DHT22;23612;50.894;10.700;2022-12-10T16:20:22;-0.40;99.90
20528;DHT22;23612;50.894;10.700;2022-12-10T16:22:51;-0.40;99.90
20528;DHT22;23612;50.894;10.700;2022-12-10T16:25:17;-0.40;99.90
20528;DHT22;23612;50.894;10.700;2022-12-10T16:27:44;-0.40;99.90
20528;DHT22;23612;50.894;10.700;2022-12-10T16:32:54;-0.30;99.90
20528;DHT22;23612;50.894;10.700;2022-12-10T16:35:21;-0.30;99.90
20528;DHT22;23612;50.894;10.700;2022-12-10T16:37:47;-0.40;99.90
20528;DHT22;23612;50.894;10.700;2022-12-10T16:40:20;-0.40;99.90
20528;DHT22;23612;50.894;10.700;2022-12-10T16:42:46;-0.40;99.90
20528;DHT22;23612;50.894;10.700;2022-12-10T16:45:16;-0.30;99.90
20528;DHT22;23612;50.894;10.700;2022-12-10T16:47:42;-0.40;99.90
20528;DHT22;23612;50.894;10.700;2022-12-10T16:50:08;-0.40;99.90
20528;DHT22;23612;50.894;10.700;2022-12-10T16:52:34;-0.40;99.90
20528;DHT22;23612;50.894;10.700;2022-12-10T16:55:00;-0.40;99.90
20528;DHT22;23612;50.894;10.700;2022-12-10T16:57:26;-0.40;99.90
20528;DHT22;23612;50.894;10.700;2022-12-10T16:59:52;-0.50;99.90
20528;DHT22;23612;50.894;10.700;2022-12-10T17:02:18;-0.50;99.90
20528;DHT22;23612;50.894;10.700;2022-12-10T17:04:46;-0.40;99.90
20528;DHT22;23612;50.894;10.700;2022-12-10T17:07:12;-0.50;99.90
20528;DHT22;23612;50.894;10.700;2022-12-10T17:09:38;-0.50;99.90
20528;DHT22;23612;50.894;10.700;2022-12-10T17:12:05;-0.40;99.90
20528;DHT22;23612;50.894;10.700;2022-12-10T17:14:34;-0.50;99.90
20528;DHT22;23612;50.894;10.700;2022-12-10T17:17:01;-0.40;99.90
20528;DHT22;23612;50.894;10.700;2022-12-10T17:19:35;-0.50;99.90
20528;DHT22;23612;50.894;10.700;2022-12-10T17:22:01;-0.50;99.90